createdAt,value
2024-02-14T00:01:35.139Z,3.70
2024-02-14T00:04:02.390Z,3.83
2024-02-14T00:06:29.718Z,4.63
2024-02-14T00:08:56.980Z,4.80
2024-02-14T00:11:24.886Z,4.88
2024-02-14T00:13:52.304Z,4.93
2024-02-14T00:16:19.540Z,5.07
2024-02-14T00:18:47.025Z,4.68
2024-02-14T00:21:14.842Z,5.53
2024-02-14T00:23:42.342Z,5.82
2024-02-14T00:26:09.481Z,5.93
2024-02-14T00:28:37.165Z,5.50
2024-02-14T00:31:04.541Z,5.88
2024-02-14T00:33:32.234Z,5.30
2024-02-14T00:35:59.569Z,5.28
2024-02-14T00:38:27.069Z,5.78
2024-02-14T00:40:54.209Z,5.90
2024-02-14T00:43:21.442Z,5.43
2024-02-14T00:45:49.069Z,6.10
2024-02-14T00:48:16.550Z,6.72
2024-02-14T00:50:44.183Z,5.40
2024-02-14T00:53:11.383Z,6.45
2024-02-14T00:55:39.698Z,5.63
2024-02-14T00:58:06.994Z,3.80
2024-02-14T01:00:36.822Z,5.25
2024-02-14T01:03:04.689Z,5.93
2024-02-14T01:05:32.234Z,5.40
2024-02-14T01:07:59.509Z,6.27
2024-02-14T01:10:27.264Z,6.45
2024-02-14T01:12:54.414Z,6.38
2024-02-14T01:15:23.691Z,6.20
2024-02-14T01:17:50.973Z,7.55
2024-02-14T01:20:19.997Z,6.17
2024-02-14T01:22:47.677Z,6.63
2024-02-14T01:25:15.233Z,6.63
2024-02-14T01:27:42.795Z,6.97
2024-02-14T01:30:11.479Z,6.50
2024-02-14T01:32:40.514Z,6.35
2024-02-14T01:35:08.358Z,6.53
2024-02-14T01:37:35.509Z,6.72
2024-02-14T01:40:02.910Z,7.05
2024-02-14T01:42:30.187Z,6.63
2024-02-14T01:44:57.453Z,6.95
2024-02-14T01:47:24.723Z,6.47
2024-02-14T01:49:52.332Z,6.50
2024-02-14T01:52:19.717Z,6.60
2024-02-14T01:54:47.120Z,6.47
2024-02-14T01:57:14.809Z,6.45
2024-02-14T01:59:42.093Z,6.93
2024-02-14T02:02:09.713Z,6.97
2024-02-14T02:04:37.741Z,7.55
2024-02-14T02:07:06.025Z,7.13
2024-02-14T02:09:34.381Z,6.68
2024-02-14T02:12:02.513Z,7.03
2024-02-14T02:14:31.029Z,6.60
2024-02-14T02:16:58.701Z,7.13
2024-02-14T02:19:25.987Z,7.03
2024-02-14T02:21:53.740Z,7.00
2024-02-14T02:24:20.925Z,7.43
2024-02-14T02:26:48.465Z,7.28
2024-02-14T02:29:17.927Z,7.57
2024-02-14T02:31:45.172Z,7.22
2024-02-14T02:34:12.992Z,7.65
2024-02-14T02:36:42.008Z,7.15
2024-02-14T02:39:09.638Z,7.70
2024-02-14T02:41:36.878Z,6.30
2024-02-14T02:44:04.113Z,6.65
2024-02-14T02:46:31.708Z,6.72
2024-02-14T02:49:00.188Z,6.85
2024-02-14T02:51:29.202Z,6.35
2024-02-14T02:53:56.987Z,5.82
2024-02-14T02:56:28.604Z,5.93
2024-02-14T02:58:57.127Z,6.18
2024-02-14T03:01:26.590Z,6.57
2024-02-14T03:03:54.386Z,6.85
2024-02-14T03:06:22.271Z,6.65
2024-02-14T03:08:50.432Z,6.63
2024-02-14T03:11:17.627Z,5.80
2024-02-14T03:13:45.936Z,6.55
2024-02-14T03:16:13.099Z,6.18
2024-02-14T03:18:40.896Z,5.70
2024-02-14T03:21:08.535Z,6.47
2024-02-14T03:23:36.267Z,5.93
2024-02-14T03:26:04.284Z,6.00
2024-02-14T03:28:31.798Z,6.15
2024-02-14T03:30:59.173Z,6.20
2024-02-14T03:33:26.914Z,6.05
2024-02-14T03:35:54.389Z,5.80
2024-02-14T03:38:29.785Z,6.07
2024-02-14T03:40:57.897Z,6.15
2024-02-14T03:43:25.523Z,5.93
2024-02-14T03:45:53.358Z,5.72
2024-02-14T03:48:20.879Z,6.20
2024-02-14T03:50:48.398Z,5.80
2024-02-14T03:53:16.710Z,5.50
2024-02-14T03:55:44.138Z,6.00
2024-02-14T03:58:11.198Z,5.60
2024-02-14T04:00:38.928Z,5.93
2024-02-14T04:03:06.291Z,5.38
2024-02-14T04:05:33.759Z,6.30
2024-02-14T04:08:01.084Z,5.75
2024-02-14T04:10:28.397Z,5.80
2024-02-14T04:12:55.644Z,6.28
2024-02-14T04:15:23.246Z,6.30
2024-02-14T04:17:50.887Z,6.70
2024-02-14T04:20:18.573Z,6.30
2024-02-14T04:22:46.136Z,5.40
2024-02-14T04:25:14.981Z,5.30
2024-02-14T04:27:42.026Z,6.38
2024-02-14T04:30:10.133Z,6.20
2024-02-14T04:32:37.638Z,5.17
2024-02-14T04:35:05.453Z,5.57
2024-02-14T04:37:32.664Z,6.28
2024-02-14T04:40:01.064Z,5.35
2024-02-14T04:42:28.168Z,5.32
2024-02-14T04:44:55.357Z,5.97
2024-02-14T04:47:22.907Z,5.90
2024-02-14T04:49:50.036Z,5.53
2024-02-14T04:52:20.409Z,5.55
2024-02-14T04:54:47.562Z,5.72
2024-02-14T04:57:14.796Z,5.90
2024-02-14T04:59:41.953Z,4.53
2024-02-14T05:02:09.129Z,5.00
2024-02-14T05:04:39.330Z,6.15
2024-02-14T05:07:06.692Z,5.80
2024-02-14T05:09:33.919Z,6.37
2024-02-14T05:12:01.119Z,5.85
2024-02-14T05:14:33.051Z,6.20
2024-02-14T05:17:03.038Z,5.75
2024-02-14T05:19:31.585Z,6.07
2024-02-14T05:21:58.850Z,6.32
2024-02-14T05:24:28.900Z,6.88
2024-02-14T05:26:56.620Z,5.97
2024-02-14T05:29:23.845Z,6.00
2024-02-14T05:31:51.081Z,7.25
2024-02-14T05:34:18.449Z,7.40
2024-02-14T05:36:47.634Z,7.10
2024-02-14T05:39:18.658Z,5.40
2024-02-14T05:41:45.983Z,6.70
2024-02-14T05:44:13.313Z,7.57
2024-02-14T05:46:40.494Z,6.80
2024-02-14T05:49:07.692Z,7.50
2024-02-14T05:51:34.865Z,8.05
2024-02-14T05:54:02.058Z,7.45
2024-02-14T05:56:29.188Z,8.23
2024-02-14T05:58:56.395Z,8.77
2024-02-14T06:01:23.502Z,8.70
2024-02-14T06:03:50.671Z,8.30
2024-02-14T06:06:18.008Z,8.73
2024-02-14T06:08:46.076Z,7.82
2024-02-14T06:11:15.530Z,8.10
2024-02-14T06:13:44.481Z,7.80
2024-02-14T06:16:13.083Z,8.13
2024-02-14T06:18:41.390Z,7.43
2024-02-14T06:21:08.744Z,6.10
2024-02-14T06:23:36.114Z,7.80
2024-02-14T06:26:03.256Z,7.32
2024-02-14T06:28:30.325Z,6.97
2024-02-14T06:31:00.311Z,5.80
2024-02-14T06:33:27.586Z,7.10
2024-02-14T06:35:55.175Z,6.45
2024-02-14T06:38:22.443Z,5.38
2024-02-14T06:40:49.522Z,6.72
2024-02-14T06:43:16.681Z,6.90
2024-02-14T06:45:44.997Z,5.47
2024-02-14T06:48:12.219Z,5.78
2024-02-14T06:50:40.270Z,6.80
2024-02-14T06:53:08.255Z,5.97
2024-02-14T06:55:35.541Z,6.20
2024-02-14T06:58:02.981Z,5.57
2024-02-14T07:00:30.111Z,5.65
2024-02-14T07:02:57.788Z,5.50
2024-02-14T07:05:24.968Z,5.63
2024-02-14T07:07:52.012Z,4.43
2024-02-14T07:10:19.126Z,4.55
2024-02-14T07:12:46.234Z,5.10
2024-02-14T07:15:13.500Z,5.32
2024-02-14T07:17:40.776Z,4.78
2024-02-14T07:20:11.076Z,5.30
2024-02-14T07:22:38.299Z,5.80
2024-02-14T07:25:06.546Z,4.72
2024-02-14T07:27:37.241Z,5.00
2024-02-14T07:30:04.828Z,5.93
2024-02-14T07:32:32.201Z,6.00
2024-02-14T07:34:59.498Z,4.85
2024-02-14T07:37:26.625Z,4.60
2024-02-14T07:39:56.235Z,6.57
2024-02-14T07:42:23.436Z,5.15
2024-02-14T07:44:50.736Z,4.43
2024-02-14T07:47:17.926Z,4.85
2024-02-14T07:49:45.223Z,5.18
2024-02-14T07:52:12.394Z,4.68
2024-02-14T07:54:39.695Z,5.22
2024-02-14T07:57:07.001Z,5.38
2024-02-14T07:59:34.242Z,4.90
2024-02-14T08:02:02.015Z,4.80
2024-02-14T08:04:29.313Z,4.68
2024-02-14T08:06:56.758Z,4.85
2024-02-14T08:09:23.920Z,5.07
2024-02-14T08:11:54.568Z,4.20
2024-02-14T08:14:21.775Z,4.97
2024-02-14T08:16:48.870Z,4.88
2024-02-14T08:19:17.319Z,4.85
2024-02-14T08:21:44.740Z,3.90
2024-02-14T08:24:12.092Z,3.45
2024-02-14T08:26:39.306Z,4.57
2024-02-14T08:29:06.502Z,4.88
2024-02-14T08:31:34.364Z,4.72
2024-02-14T08:34:01.784Z,4.72
2024-02-14T08:36:29.075Z,3.50
2024-02-14T08:38:56.287Z,5.20
2024-02-14T08:41:24.777Z,5.78
2024-02-14T08:43:52.156Z,4.88
2024-02-14T08:46:19.870Z,5.78
2024-02-14T08:48:49.134Z,6.07
2024-02-14T08:51:18.600Z,6.30
2024-02-14T08:53:47.031Z,5.28
2024-02-14T08:56:15.182Z,5.07
2024-02-14T08:58:43.011Z,4.50
2024-02-14T09:01:15.013Z,4.45
2024-02-14T09:03:50.697Z,5.40
2024-02-14T09:06:22.003Z,5.00
2024-02-14T09:08:50.071Z,4.45
2024-02-14T09:11:17.300Z,5.18
2024-02-14T09:13:44.441Z,5.35
2024-02-14T09:16:12.733Z,4.95
2024-02-14T09:18:40.491Z,5.45
2024-02-14T09:21:08.563Z,3.95
2024-02-14T09:23:36.244Z,4.28
2024-02-14T09:26:03.698Z,4.97
2024-02-14T09:28:31.280Z,5.47
2024-02-14T09:30:58.765Z,5.07
2024-02-14T09:33:26.420Z,5.55
2024-02-14T09:35:54.412Z,6.20
2024-02-14T09:38:21.870Z,4.10
2024-02-14T09:40:52.141Z,5.50
2024-02-14T09:43:34.163Z,5.07
2024-02-14T09:46:01.346Z,4.72
2024-02-14T09:48:29.587Z,5.35
2024-02-14T09:50:58.457Z,5.93
2024-02-14T09:53:25.645Z,4.73
2024-02-14T09:55:53.935Z,4.85
2024-02-14T09:58:21.518Z,4.80
2024-02-14T10:00:48.705Z,5.00
2024-02-14T10:03:17.471Z,4.60
2024-02-14T10:05:44.816Z,5.70
2024-02-14T10:08:12.698Z,4.35
2024-02-14T10:10:39.973Z,5.00
2024-02-14T10:13:07.949Z,5.10
2024-02-14T10:15:35.335Z,4.47
2024-02-14T10:18:05.008Z,4.35
2024-02-14T10:20:35.511Z,4.68
2024-02-14T10:23:06.719Z,4.97
2024-02-14T10:25:36.258Z,3.95
2024-02-14T10:28:10.055Z,3.45
2024-02-14T10:30:42.533Z,3.45
2024-02-14T10:33:20.123Z,3.22
2024-02-14T10:35:54.217Z,3.50
2024-02-14T10:38:24.629Z,3.63
2024-02-14T10:40:53.633Z,4.20
2024-02-14T10:43:20.728Z,3.90
2024-02-14T10:45:48.109Z,2.90
2024-02-14T10:48:18.586Z,3.53
2024-02-14T10:50:48.190Z,4.15
2024-02-14T10:53:17.200Z,4.55
2024-02-14T10:55:48.995Z,2.30
2024-02-14T10:58:18.210Z,4.60
2024-02-14T11:00:48.921Z,4.22
2024-02-14T11:03:17.093Z,3.83
2024-02-14T11:05:47.062Z,2.90
2024-02-14T11:08:24.773Z,3.20
2024-02-14T11:11:00.423Z,3.55
2024-02-14T11:13:32.566Z,2.80
2024-02-14T11:16:03.591Z,5.10
2024-02-14T11:18:38.097Z,4.00
2024-02-14T11:21:06.297Z,3.25
2024-02-14T11:23:34.177Z,3.35
2024-02-14T11:26:06.678Z,3.25
2024-02-14T11:28:41.931Z,2.35
2024-02-14T11:31:11.480Z,2.50
2024-02-14T11:33:38.774Z,3.60
2024-02-14T11:36:13.056Z,2.50
2024-02-14T11:38:42.631Z,2.67
2024-02-14T11:41:12.227Z,2.78
2024-02-14T11:43:41.047Z,2.83
2024-02-14T11:46:11.492Z,2.63
2024-02-14T11:48:41.281Z,2.80
2024-02-14T11:51:09.534Z,2.80
2024-02-14T11:53:36.846Z,2.90
2024-02-14T11:56:04.425Z,2.60
2024-02-14T11:58:32.965Z,2.80
2024-02-14T12:01:00.239Z,3.03
2024-02-14T12:03:27.833Z,2.88
2024-02-14T12:05:55.609Z,2.60
2024-02-14T12:08:25.831Z,3.05
2024-02-14T12:10:53.168Z,2.67
2024-02-14T12:13:22.675Z,3.47
2024-02-14T12:15:52.602Z,3.88
2024-02-14T12:18:22.260Z,2.95
2024-02-14T12:20:56.177Z,3.15
2024-02-14T12:23:28.034Z,3.35
2024-02-14T12:25:55.395Z,3.28
2024-02-14T12:28:22.820Z,2.90
2024-02-14T12:30:53.982Z,2.80
2024-02-14T12:33:21.194Z,2.90
2024-02-14T12:35:52.793Z,3.15
2024-02-14T12:38:21.464Z,3.47
2024-02-14T12:40:48.616Z,3.50
2024-02-14T12:43:17.380Z,2.92
2024-02-14T12:45:45.343Z,2.88
2024-02-14T12:48:15.276Z,4.72
2024-02-14T12:50:49.246Z,3.80
2024-02-14T12:53:16.461Z,3.45
2024-02-14T12:55:43.584Z,3.65
2024-02-14T12:58:13.731Z,3.22
2024-02-14T13:00:40.851Z,3.42
2024-02-14T13:03:13.366Z,3.28
2024-02-14T13:05:42.347Z,3.38
2024-02-14T13:08:12.684Z,3.35
2024-02-14T13:10:40.165Z,4.82
2024-02-14T13:13:07.349Z,5.57
2024-02-14T13:15:34.899Z,3.42
2024-02-14T13:18:06.499Z,3.20
2024-02-14T13:20:34.474Z,2.63
2024-02-14T13:23:02.021Z,2.90
2024-02-14T13:25:29.375Z,3.00
2024-02-14T13:27:56.927Z,3.10
2024-02-14T13:30:24.282Z,7.95
2024-02-14T13:32:51.578Z,3.47
2024-02-14T13:35:18.907Z,6.63
2024-02-14T13:37:46.539Z,10.30
2024-02-14T13:40:15.400Z,8.80
2024-02-14T13:42:43.608Z,10.60
2024-02-14T13:45:13.190Z,11.65
2024-02-14T13:47:41.616Z,5.47
2024-02-14T13:50:12.139Z,29.25
2024-02-14T13:52:39.967Z,9.95
2024-02-14T13:55:09.285Z,10.25
2024-02-14T13:57:40.438Z,27.90
2024-02-14T14:00:13.297Z,6.68
2024-02-14T14:02:43.541Z,13.40
2024-02-14T14:05:12.668Z,3.67
2024-02-14T14:07:53.641Z,3.90
2024-02-14T14:10:27.753Z,3.03
2024-02-14T14:12:56.187Z,3.40
2024-02-14T14:15:24.513Z,3.63
2024-02-14T14:17:52.926Z,3.17
2024-02-14T14:20:21.336Z,2.60
2024-02-14T14:22:51.515Z,3.05
2024-02-14T14:25:19.723Z,3.20
2024-02-14T14:27:47.002Z,3.30
2024-02-14T14:30:15.042Z,3.15
2024-02-14T14:32:42.484Z,3.30
2024-02-14T14:35:12.468Z,3.08
2024-02-14T14:37:40.135Z,3.03
2024-02-14T14:40:10.114Z,3.00
2024-02-14T14:42:38.270Z,2.83
2024-02-14T14:45:06.251Z,3.67
2024-02-14T14:47:33.713Z,3.47
2024-02-14T14:50:01.217Z,3.83
2024-02-14T14:52:28.573Z,2.95
2024-02-14T14:54:55.817Z,3.78
2024-02-14T14:57:25.362Z,4.05
2024-02-14T14:59:54.876Z,5.15
2024-02-14T15:02:23.931Z,7.30
2024-02-14T15:04:52.281Z,6.63
2024-02-14T15:07:21.644Z,3.60
2024-02-14T15:09:48.983Z,3.20
2024-02-14T15:12:16.723Z,2.72
2024-02-14T15:14:44.153Z,3.08
2024-02-14T15:17:11.877Z,3.63
2024-02-14T15:19:39.023Z,2.95
2024-02-14T15:22:07.882Z,3.00
2024-02-14T15:24:37.328Z,3.78
2024-02-14T15:27:07.489Z,3.83
2024-02-14T15:29:53.567Z,4.00
2024-02-14T15:32:40.498Z,3.50
2024-02-14T15:35:10.220Z,3.63
2024-02-14T15:37:37.467Z,3.08
2024-02-14T15:40:06.027Z,3.50
2024-02-14T15:42:34.118Z,3.33
2024-02-14T15:45:01.540Z,2.78
2024-02-14T15:47:28.720Z,3.40
2024-02-14T15:49:56.653Z,4.22
2024-02-14T15:52:23.850Z,3.40
2024-02-14T15:54:53.582Z,3.33
2024-02-14T15:57:21.027Z,2.92
2024-02-14T15:59:48.535Z,3.80
2024-02-14T16:02:15.643Z,4.55
2024-02-14T16:04:43.293Z,5.18
2024-02-14T16:07:10.328Z,7.10
2024-02-14T16:09:38.468Z,5.20
2024-02-14T16:12:06.164Z,5.68
2024-02-14T16:14:33.948Z,5.68
2024-02-14T16:17:01.110Z,5.20
2024-02-14T16:19:28.920Z,4.80
2024-02-14T16:22:05.789Z,5.05
2024-02-14T16:24:38.493Z,4.78
2024-02-14T16:27:06.536Z,5.72
2024-02-14T16:29:34.151Z,9.60
2024-02-14T16:32:01.573Z,13.50
2024-02-14T16:34:29.451Z,16.67
2024-02-14T16:36:57.047Z,14.68
2024-02-14T16:39:35.379Z,14.35
2024-02-14T16:42:09.966Z,10.25
2024-02-14T16:44:40.171Z,10.27
2024-02-14T16:47:08.260Z,11.32
2024-02-14T16:49:36.231Z,10.27
2024-02-14T16:52:04.764Z,8.57
2024-02-14T16:54:33.325Z,6.28
2024-02-14T16:57:11.952Z,4.40
2024-02-14T16:59:47.040Z,5.80
2024-02-14T17:02:15.029Z,6.78
2024-02-14T17:04:45.281Z,8.43
2024-02-14T17:07:16.719Z,9.80
2024-02-14T17:09:44.409Z,10.45
2024-02-14T17:12:12.276Z,9.45
2024-02-14T17:14:42.476Z,8.82
2024-02-14T17:17:11.575Z,7.68
2024-02-14T17:19:39.201Z,5.20
2024-02-14T17:22:16.764Z,6.28
2024-02-14T17:24:49.432Z,6.57
2024-02-14T17:27:17.425Z,5.68
2024-02-14T17:29:45.251Z,5.30
2024-02-14T17:32:20.045Z,5.50
2024-02-14T17:34:55.160Z,5.60
2024-02-14T17:37:22.312Z,5.93
2024-02-14T17:39:49.578Z,5.93
2024-02-14T17:42:16.838Z,7.22
2024-02-14T17:44:44.946Z,6.75
2024-02-14T17:47:11.996Z,14.77
2024-02-14T17:49:39.786Z,8.40
2024-02-14T17:52:07.071Z,10.40
2024-02-14T17:54:36.700Z,10.13
2024-02-14T17:57:03.933Z,10.30
2024-02-14T17:59:31.254Z,13.93
2024-02-14T18:01:58.514Z,15.82
2024-02-14T18:04:26.557Z,16.08
2024-02-14T18:06:53.694Z,17.27
2024-02-14T18:09:20.959Z,18.50
2024-02-14T18:11:48.155Z,19.35
2024-02-14T18:14:15.592Z,17.98
2024-02-14T18:16:42.734Z,20.08
2024-02-14T18:19:11.037Z,18.90
2024-02-14T18:21:38.362Z,17.73
2024-02-14T18:24:07.385Z,17.23
2024-02-14T18:26:34.732Z,17.00
2024-02-14T18:29:01.978Z,16.42
2024-02-14T18:31:29.687Z,17.10
2024-02-14T18:33:56.955Z,17.45
2024-02-14T18:36:24.448Z,14.75
2024-02-14T18:38:54.285Z,10.70
2024-02-14T18:41:21.798Z,10.52
2024-02-14T18:43:48.925Z,11.98
2024-02-14T18:46:15.987Z,26.83
2024-02-14T18:48:43.469Z,24.43
2024-02-14T18:51:11.160Z,23.45
2024-02-14T18:53:38.969Z,23.13
2024-02-14T18:56:06.375Z,18.85
2024-02-14T18:58:34.557Z,16.17
2024-02-14T19:01:01.653Z,15.77
2024-02-14T19:03:29.276Z,16.02
2024-02-14T19:05:56.626Z,23.77
2024-02-14T19:08:24.392Z,20.05
2024-02-14T19:10:51.478Z,28.25
2024-02-14T19:13:18.987Z,31.83
2024-02-14T19:15:46.460Z,22.58
2024-02-14T19:18:14.778Z,21.60
2024-02-14T19:20:44.859Z,17.27
2024-02-14T19:23:12.418Z,21.37
2024-02-14T19:25:39.474Z,23.25
2024-02-14T19:28:10.717Z,22.02
2024-02-14T19:30:37.880Z,20.57
2024-02-14T19:33:05.254Z,21.37
2024-02-14T19:35:32.569Z,25.73
2024-02-14T19:37:59.656Z,13.85
2024-02-14T19:40:26.829Z,16.60
2024-02-14T19:42:53.915Z,16.40
2024-02-14T19:45:21.088Z,20.33
2024-02-14T19:47:50.714Z,23.20
2024-02-14T19:50:21.213Z,21.02
2024-02-14T19:52:48.812Z,23.55
2024-02-14T19:55:15.954Z,22.05
2024-02-14T19:57:43.957Z,22.40
2024-02-14T20:00:11.794Z,25.77
2024-02-14T20:02:43.137Z,21.75
2024-02-14T20:05:11.593Z,20.80
2024-02-14T20:07:39.129Z,17.77
2024-02-14T20:10:07.549Z,25.50
2024-02-14T20:12:36.800Z,25.70
2024-02-14T20:15:07.350Z,32.67
2024-02-14T20:17:35.507Z,37.55
2024-02-14T20:20:06.147Z,12.52
2024-02-14T20:22:34.874Z,29.67
2024-02-14T20:25:02.326Z,19.63
2024-02-14T20:27:32.028Z,27.15
2024-02-14T20:29:59.906Z,20.15
2024-02-14T20:32:28.124Z,22.58
2024-02-14T20:34:55.754Z,23.77
2024-02-14T20:37:23.405Z,19.80
2024-02-14T20:39:50.873Z,22.40
2024-02-14T20:42:18.570Z,25.20
2024-02-14T20:44:45.722Z,21.95
2024-02-14T20:47:15.064Z,25.05
2024-02-14T20:49:42.221Z,24.33
2024-02-14T20:52:12.930Z,26.42
2024-02-14T20:54:40.280Z,26.52
2024-02-14T20:57:07.515Z,20.03
2024-02-14T20:59:35.801Z,22.15
2024-02-14T21:02:07.627Z,21.23
2024-02-14T21:04:39.294Z,20.87
2024-02-14T21:07:06.985Z,26.67
2024-02-14T21:09:34.356Z,19.38
2024-02-14T21:12:02.834Z,15.52
2024-02-14T21:14:30.560Z,18.23
2024-02-14T21:16:58.187Z,17.33
2024-02-14T21:19:25.743Z,16.45
2024-02-14T21:21:53.591Z,13.32
2024-02-14T21:24:20.702Z,12.48
2024-02-14T21:27:16.442Z,17.10
2024-02-14T21:29:44.768Z,13.82
2024-02-14T21:32:12.258Z,14.30
2024-02-14T21:34:40.037Z,14.82
2024-02-14T21:37:07.286Z,17.30
2024-02-14T21:39:34.997Z,14.00
2024-02-14T21:42:02.798Z,15.88
2024-02-14T21:44:33.364Z,18.35
2024-02-14T21:47:00.447Z,17.98
2024-02-14T21:49:28.806Z,17.20
2024-02-14T21:51:58.644Z,13.13
2024-02-14T21:54:26.216Z,13.23
2024-02-14T21:56:53.387Z,13.35
2024-02-14T21:59:20.573Z,13.60
2024-02-14T22:01:47.756Z,13.25
2024-02-14T22:04:14.842Z,14.48
2024-02-14T22:06:42.591Z,15.45
2024-02-14T22:09:10.614Z,14.50
2024-02-14T22:11:38.058Z,16.13
2024-02-14T22:14:05.636Z,16.27
2024-02-14T22:16:33.172Z,16.77
2024-02-14T22:19:01.730Z,14.70
2024-02-14T22:21:30.259Z,15.63
2024-02-14T22:23:57.458Z,16.25
2024-02-14T22:26:25.467Z,14.27
2024-02-14T22:28:53.636Z,12.93
2024-02-14T22:31:21.011Z,12.68
2024-02-14T22:33:51.362Z,14.13
2024-02-14T22:36:18.976Z,14.40
2024-02-14T22:38:46.325Z,12.93
2024-02-14T22:41:15.665Z,13.07
2024-02-14T22:43:42.777Z,9.05
2024-02-14T22:46:13.283Z,11.27
2024-02-14T22:48:41.538Z,12.20
2024-02-14T22:51:10.099Z,10.23
2024-02-14T22:53:37.238Z,10.68
2024-02-14T22:56:05.301Z,10.80
2024-02-14T22:58:32.549Z,11.55
2024-02-14T23:00:59.876Z,13.07
2024-02-14T23:03:28.266Z,13.90
2024-02-14T23:05:56.773Z,12.30
2024-02-14T23:08:24.882Z,12.05
2024-02-14T23:10:52.667Z,11.60
2024-02-14T23:13:19.750Z,12.05
2024-02-14T23:15:48.171Z,11.33
2024-02-14T23:18:15.346Z,10.43
2024-02-14T23:20:45.373Z,9.60
2024-02-14T23:23:12.538Z,10.30
2024-02-14T23:25:40.324Z,9.93
2024-02-14T23:28:07.500Z,10.15
2024-02-14T23:30:36.435Z,10.52
2024-02-14T23:33:04.941Z,9.77
2024-02-14T23:35:32.268Z,10.35
2024-02-14T23:38:00.189Z,9.82
2024-02-14T23:40:27.343Z,9.52
2024-02-14T23:43:01.155Z,10.27
2024-02-14T23:45:28.566Z,10.98
2024-02-14T23:47:56.004Z,10.48
2024-02-14T23:50:23.319Z,9.43
2024-02-14T23:52:50.396Z,9.95
2024-02-14T23:55:18.361Z,9.10
2024-02-14T23:57:45.709Z,9.48
